Hlavní strana
METAR-TAF:

METAR-TAF

Letiště :

Dněpropetrovsk, Ukrajina

zeměpisná šířka: 48-21-26N, zeměpisná délka: 035-06-02E, výška: 147 m

Aktuální stav počasí

Zpráva byla vytvořena před 29 minutami, v 04:30 UTC
Severní vítr 8 kt, proměnlivý mezi severozápadním a severoseverovýchodním
Teplota 4°C
Vlhkost vzduchu 41%
Tlak 1027 hPa
Viditelnost 10 km a více
Žádná oblačnost pod 1500 m, nevyskytují se cumulonimby.

METAR: UKDD 050430Z 35004MPS 320V030 CAVOK 04/M08 Q1027 R26/090070 NOSIG

Čas: 07:59 (04:59 UTC)

Předpověď počasí

Zpráva byla vytvořena před 5 hodinami a 56 minutami, v 23:03 UTC
Předpověď platná od 05 v 00 UTC do 05 v 24 UTC
Severoseverozápadní vítr 10 kt
Viditelnost 10 km a více
Žádná oblačnost pod 1500 m, nevyskytují se cumulonimby.
Změna
od 05 v 06 UTC do 05 v 08 UTC
Severní vítr 12 kt s nárazy do 21 kt
Dočasný
od 05 v 08 UTC do 05 v 18 UTC
Severní vítr 17 kt s nárazy do 27 kt

TAF: UKDD 042303Z 0500/0524 34005MPS CAVOK TX14/0512Z TN00/0503Z BECMG 0506/0508 35006G11MPS TEMPO 0508/0518 36009G14MPS

Stav a předpovědi počasí z více než 4 000 letišť (zprávy METAR a TAF).

Červené a žluté tečky na mapě představují dostupné meteorologické stanice.

Když kurzor umístíte na tečku, zobrazí se název stanice.

Pak kliknutím zobrazíte stav a předpověď počasí.

Chcete-li změnit mapu, kliknutím na zelené tlačítko se znaménkem +mapu přiblížíte, kliknutím na zelené tlačítko se znaménkem – mapu oddálíte a kliknutím na zelené šipky přejdete na sousední mapy.


METAR-TAF: